sensor_id;sensor_type;location;lat;lon;timestamp;temperature;humidity
68719;DHT22;55696;52.138;5.444;2023-05-07T00:01:01;18.60;67.40
68719;DHT22;55696;52.138;5.444;2023-05-07T00:03:29;18.80;67.50
68719;DHT22;55696;52.138;5.444;2023-05-07T00:05:56;18.30;67.20
68719;DHT22;55696;52.138;5.444;2023-05-07T00:08:22;19.00;67.60
68719;DHT22;55696;52.138;5.444;2023-05-07T00:10:49;18.20;67.30
68719;DHT22;55696;52.138;5.444;2023-05-07T00:13:16;18.20;67.50
68719;DHT22;55696;52.138;5.444;2023-05-07T00:15:43;18.20;67.70
68719;DHT22;55696;52.138;5.444;2023-05-07T00:18:09;18.30;67.90
68719;DHT22;55696;52.138;5.444;2023-05-07T00:20:36;18.10;67.80
68719;DHT22;55696;52.138;5.444;2023-05-07T00:23:03;18.60;68.20
68719;DHT22;55696;52.138;5.444;2023-05-07T00:25:30;18.30;68.10
68719;DHT22;55696;52.138;5.444;2023-05-07T00:27:56;18.10;68.10
68719;DHT22;55696;52.138;5.444;2023-05-07T00:30:29;18.10;68.20
68719;DHT22;55696;52.138;5.444;2023-05-07T00:32:56;18.90;68.70
68719;DHT22;55696;52.138;5.444;2023-05-07T00:35:23;18.20;68.30
68719;DHT22;55696;52.138;5.444;2023-05-07T00:37:50;18.10;68.30
68719;DHT22;55696;52.138;5.444;2023-05-07T00:40:16;18.10;68.30
68719;DHT22;55696;52.138;5.444;2023-05-07T00:42:43;18.00;68.40
68719;DHT22;55696;52.138;5.444;2023-05-07T00:45:14;18.40;68.80
68719;DHT22;55696;52.138;5.444;2023-05-07T00:47:41;18.50;69.00
68719;DHT22;55696;52.138;5.444;2023-05-07T00:50:09;18.00;68.60
68719;DHT22;55696;52.138;5.444;2023-05-07T00:52:38;18.80;69.20
68719;DHT22;55696;52.138;5.444;2023-05-07T00:55:06;18.70;69.00
68719;DHT22;55696;52.138;5.444;2023-05-07T00:57:36;18.00;69.00
68719;DHT22;55696;52.138;5.444;2023-05-07T01:00:05;17.90;69.50
68719;DHT22;55696;52.138;5.444;2023-05-07T01:02:32;18.00;68.90
68719;DHT22;55696;52.138;5.444;2023-05-07T01:05:00;18.00;68.50
68719;DHT22;55696;52.138;5.444;2023-05-07T01:07:28;17.90;69.00
68719;DHT22;55696;52.138;5.444;2023-05-07T01:09:56;17.90;68.80
68719;DHT22;55696;52.138;5.444;2023-05-07T01:12:24;17.80;68.80
68719;DHT22;55696;52.138;5.444;2023-05-07T01:14:52;17.70;68.90
68719;DHT22;55696;52.138;5.444;2023-05-07T01:17:19;18.60;69.40
68719;DHT22;55696;52.138;5.444;2023-05-07T01:19:46;17.70;69.00
68719;DHT22;55696;52.138;5.444;2023-05-07T01:22:17;18.10;69.20
68719;DHT22;55696;52.138;5.444;2023-05-07T01:24:49;17.70;69.30
68719;DHT22;55696;52.138;5.444;2023-05-07T01:27:16;18.00;69.20
68719;DHT22;55696;52.138;5.444;2023-05-07T01:29:43;17.80;69.00
68719;DHT22;55696;52.138;5.444;2023-05-07T01:32:11;18.10;69.10
68719;DHT22;55696;52.138;5.444;2023-05-07T01:34:39;18.00;69.40
68719;DHT22;55696;52.138;5.444;2023-05-07T01:37:06;17.80;69.30
68719;DHT22;55696;52.138;5.444;2023-05-07T01:39:36;17.70;69.00
68719;DHT22;55696;52.138;5.444;2023-05-07T01:42:03;17.70;69.00
68719;DHT22;55696;52.138;5.444;2023-05-07T01:44:29;17.90;69.10
68719;DHT22;55696;52.138;5.444;2023-05-07T01:46:57;17.80;69.00
68719;DHT22;55696;52.138;5.444;2023-05-07T01:49:24;19.40;69.90
68719;DHT22;55696;52.138;5.444;2023-05-07T01:51:51;17.70;69.00
68719;DHT22;55696;52.138;5.444;2023-05-07T01:54:18;17.60;69.00
68719;DHT22;55696;52.138;5.444;2023-05-07T01:56:47;17.80;69.10
68719;DHT22;55696;52.138;5.444;2023-05-07T01:59:15;17.70;69.10
68719;DHT22;55696;52.138;5.444;2023-05-07T02:01:42;17.70;69.10
68719;DHT22;55696;52.138;5.444;2023-05-07T02:04:09;17.90;69.20
68719;DHT22;55696;52.138;5.444;2023-05-07T02:06:36;17.70;69.10
68719;DHT22;55696;52.138;5.444;2023-05-07T02:09:05;17.70;69.20
68719;DHT22;55696;52.138;5.444;2023-05-07T02:11:32;17.80;69.20
68719;DHT22;55696;52.138;5.444;2023-05-07T02:13:58;17.70;69.10
68719;DHT22;55696;52.138;5.444;2023-05-07T02:16:25;17.80;69.10
68719;DHT22;55696;52.138;5.444;2023-05-07T02:18:52;17.80;69.20
68719;DHT22;55696;52.138;5.444;2023-05-07T02:21:19;17.90;69.10
68719;DHT22;55696;52.138;5.444;2023-05-07T02:23:46;17.90;69.00
68719;DHT22;55696;52.138;5.444;2023-05-07T02:26:13;17.90;68.90
68719;DHT22;55696;52.138;5.444;2023-05-07T02:28:40;17.80;68.90
68719;DHT22;55696;52.138;5.444;2023-05-07T02:31:06;17.90;68.90
68719;DHT22;55696;52.138;5.444;2023-05-07T02:33:34;17.90;69.00
68719;DHT22;55696;52.138;5.444;2023-05-07T02:36:10;17.80;68.90
68719;DHT22;55696;52.138;5.444;2023-05-07T02:38:44;18.00;70.10
68719;DHT22;55696;52.138;5.444;2023-05-07T02:41:11;17.90;68.80
68719;DHT22;55696;52.138;5.444;2023-05-07T02:43:37;18.00;68.80
68719;DHT22;55696;52.138;5.444;2023-05-07T02:46:05;17.90;68.70
68719;DHT22;55696;52.138;5.444;2023-05-07T02:48:36;18.00;69.00
68719;DHT22;55696;52.138;5.444;2023-05-07T02:51:03;18.30;69.30
68719;DHT22;55696;52.138;5.444;2023-05-07T02:53:31;17.90;69.20
68719;DHT22;55696;52.138;5.444;2023-05-07T02:55:59;17.90;69.40
68719;DHT22;55696;52.138;5.444;2023-05-07T02:58:26;18.70;70.40
68719;DHT22;55696;52.138;5.444;2023-05-07T03:00:54;17.90;69.60
68719;DHT22;55696;52.138;5.444;2023-05-07T03:03:35;17.90;69.60
68719;DHT22;55696;52.138;5.444;2023-05-07T03:06:02;17.70;69.90
68719;DHT22;55696;52.138;5.444;2023-05-07T03:08:29;17.90;69.80
68719;DHT22;55696;52.138;5.444;2023-05-07T03:10:56;17.80;69.60
68719;DHT22;55696;52.138;5.444;2023-05-07T03:13:23;17.80;69.50
68719;DHT22;55696;52.138;5.444;2023-05-07T03:15:51;17.90;69.40
68719;DHT22;55696;52.138;5.444;2023-05-07T03:18:17;17.80;69.30
68719;DHT22;55696;52.138;5.444;2023-05-07T03:20:44;18.00;69.50
68719;DHT22;55696;52.138;5.444;2023-05-07T03:23:11;17.70;69.40
68719;DHT22;55696;52.138;5.444;2023-05-07T03:25:38;17.60;69.50
68719;DHT22;55696;52.138;5.444;2023-05-07T03:28:05;17.70;69.60
68719;DHT22;55696;52.138;5.444;2023-05-07T03:30:41;17.60;69.70
68719;DHT22;55696;52.138;5.444;2023-05-07T03:33:07;17.60;70.00
68719;DHT22;55696;52.138;5.444;2023-05-07T03:35:35;17.40;69.90
68719;DHT22;55696;52.138;5.444;2023-05-07T03:38:01;17.50;70.00
68719;DHT22;55696;52.138;5.444;2023-05-07T03:40:32;17.60;70.10
68719;DHT22;55696;52.138;5.444;2023-05-07T03:43:00;17.60;70.10
68719;DHT22;55696;52.138;5.444;2023-05-07T03:45:29;17.50;70.70
68719;DHT22;55696;52.138;5.444;2023-05-07T03:48:07;17.90;70.40
68719;DHT22;55696;52.138;5.444;2023-05-07T03:50:34;17.50;70.20
68719;DHT22;55696;52.138;5.444;2023-05-07T03:53:01;17.40;70.10
68719;DHT22;55696;52.138;5.444;2023-05-07T03:55:29;17.50;70.20
68719;DHT22;55696;52.138;5.444;2023-05-07T03:58:00;17.50;70.30
68719;DHT22;55696;52.138;5.444;2023-05-07T04:00:27;17.40;71.00
68719;DHT22;55696;52.138;5.444;2023-05-07T04:02:58;17.50;70.40
68719;DHT22;55696;52.138;5.444;2023-05-07T04:05:29;17.40;70.40
68719;DHT22;55696;52.138;5.444;2023-05-07T04:08:00;17.60;70.40
68719;DHT22;55696;52.138;5.444;2023-05-07T04:10:36;17.70;70.60
68719;DHT22;55696;52.138;5.444;2023-05-07T04:13:07;17.70;70.30
68719;DHT22;55696;52.138;5.444;2023-05-07T04:15:35;17.60;70.10
68719;DHT22;55696;52.138;5.444;2023-05-07T04:18:05;17.60;70.50
68719;DHT22;55696;52.138;5.444;2023-05-07T04:20:34;18.00;70.40
68719;DHT22;55696;52.138;5.444;2023-05-07T04:23:04;18.40;71.20
68719;DHT22;55696;52.138;5.444;2023-05-07T04:25:31;17.70;70.20
68719;DHT22;55696;52.138;5.444;2023-05-07T04:28:08;17.70;70.20
68719;DHT22;55696;52.138;5.444;2023-05-07T04:30:36;18.00;70.40
68719;DHT22;55696;52.138;5.444;2023-05-07T04:33:05;19.20;71.20
68719;DHT22;55696;52.138;5.444;2023-05-07T04:35:35;17.60;70.40
68719;DHT22;55696;52.138;5.444;2023-05-07T04:38:03;17.70;70.90
68719;DHT22;55696;52.138;5.444;2023-05-07T04:40:30;17.50;70.20
68719;DHT22;55696;52.138;5.444;2023-05-07T04:42:58;17.70;70.40
68719;DHT22;55696;52.138;5.444;2023-05-07T04:45:25;17.70;70.40
68719;DHT22;55696;52.138;5.444;2023-05-07T04:47:53;18.60;70.70
68719;DHT22;55696;52.138;5.444;2023-05-07T04:50:20;17.80;71.10
68719;DHT22;55696;52.138;5.444;2023-05-07T04:52:52;17.80;69.90
68719;DHT22;55696;52.138;5.444;2023-05-07T04:55:19;17.70;69.60
68719;DHT22;55696;52.138;5.444;2023-05-07T04:57:46;17.80;69.60
68719;DHT22;55696;52.138;5.444;2023-05-07T05:00:15;18.10;69.60
68719;DHT22;55696;52.138;5.444;2023-05-07T05:02:44;17.90;69.40
68719;DHT22;55696;52.138;5.444;2023-05-07T05:05:14;17.90;69.30
68719;DHT22;55696;52.138;5.444;2023-05-07T05:07:41;17.90;69.30
68719;DHT22;55696;52.138;5.444;2023-05-07T05:10:08;17.90;69.30
68719;DHT22;55696;52.138;5.444;2023-05-07T05:12:38;18.00;69.20
68719;DHT22;55696;52.138;5.444;2023-05-07T05:15:06;18.00;69.00
68719;DHT22;55696;52.138;5.444;2023-05-07T05:17:33;18.10;69.00
68719;DHT22;55696;52.138;5.444;2023-05-07T05:20:04;18.10;68.80
68719;DHT22;55696;52.138;5.444;2023-05-07T05:22:33;18.20;68.90
68719;DHT22;55696;52.138;5.444;2023-05-07T05:25:01;18.50;68.80
68719;DHT22;55696;52.138;5.444;2023-05-07T05:27:28;18.90;68.90
68719;DHT22;55696;52.138;5.444;2023-05-07T05:29:55;18.10;68.90
68719;DHT22;55696;52.138;5.444;2023-05-07T05:32:22;18.80;69.00
68719;DHT22;55696;52.138;5.444;2023-05-07T05:34:52;18.40;68.90
68719;DHT22;55696;52.138;5.444;2023-05-07T05:37:19;18.10;68.80
68719;DHT22;55696;52.138;5.444;2023-05-07T05:39:45;18.70;69.00
68719;DHT22;55696;52.138;5.444;2023-05-07T05:42:12;18.80;69.10
68719;DHT22;55696;52.138;5.444;2023-05-07T05:44:39;18.20;68.70
68719;DHT22;55696;52.138;5.444;2023-05-07T05:47:06;18.20;68.50
68719;DHT22;55696;52.138;5.444;2023-05-07T05:49:33;18.30;68.40
68719;DHT22;55696;52.138;5.444;2023-05-07T05:52:03;18.70;68.70
68719;DHT22;55696;52.138;5.444;2023-05-07T05:54:29;18.40;68.50
68719;DHT22;55696;52.138;5.444;2023-05-07T05:56:56;18.40;68.40
68719;DHT22;55696;52.138;5.444;2023-05-07T05:59:24;19.20;68.70
68719;DHT22;55696;52.138;5.444;2023-05-07T06:01:52;18.60;68.20
68719;DHT22;55696;52.138;5.444;2023-05-07T06:04:19;18.60;68.00
68719;DHT22;55696;52.138;5.444;2023-05-07T06:06:46;18.60;67.90
68719;DHT22;55696;52.138;5.444;2023-05-07T06:09:13;18.70;67.80
68719;DHT22;55696;52.138;5.444;2023-05-07T06:11:43;18.50;67.70
68719;DHT22;55696;52.138;5.444;2023-05-07T06:14:11;18.60;67.80
68719;DHT22;55696;52.138;5.444;2023-05-07T06:16:38;18.60;68.00
68719;DHT22;55696;52.138;5.444;2023-05-07T06:19:06;18.80;68.00
68719;DHT22;55696;52.138;5.444;2023-05-07T06:21:33;18.00;67.60
68719;DHT22;55696;52.138;5.444;2023-05-07T06:24:00;18.70;67.80
68719;DHT22;55696;52.138;5.444;2023-05-07T06:26:27;18.50;67.70
68719;DHT22;55696;52.138;5.444;2023-05-07T06:28:53;18.80;68.00
68719;DHT22;55696;52.138;5.444;2023-05-07T06:31:20;18.60;68.00
68719;DHT22;55696;52.138;5.444;2023-05-07T06:33:53;18.70;68.10
68719;DHT22;55696;52.138;5.444;2023-05-07T06:36:24;18.80;68.10
68719;DHT22;55696;52.138;5.444;2023-05-07T06:38:54;18.80;67.90
68719;DHT22;55696;52.138;5.444;2023-05-07T06:41:21;18.80;67.80
68719;DHT22;55696;52.138;5.444;2023-05-07T06:43:48;19.50;68.00
68719;DHT22;55696;52.138;5.444;2023-05-07T06:46:50;18.90;67.70
68719;DHT22;55696;52.138;5.444;2023-05-07T06:49:17;19.00;67.70
68719;DHT22;55696;52.138;5.444;2023-05-07T06:51:45;19.80;68.10
68719;DHT22;55696;52.138;5.444;2023-05-07T06:54:11;19.00;67.70
68719;DHT22;55696;52.138;5.444;2023-05-07T06:56:39;19.10;67.60
68719;DHT22;55696;52.138;5.444;2023-05-07T06:59:07;18.90;67.50
68719;DHT22;55696;52.138;5.444;2023-05-07T07:01:38;19.40;67.80
68719;DHT22;55696;52.138;5.444;2023-05-07T07:04:06;19.50;67.80
68719;DHT22;55696;52.138;5.444;2023-05-07T07:06:34;20.00;68.00
68719;DHT22;55696;52.138;5.444;2023-05-07T07:09:03;19.40;67.50
68719;DHT22;55696;52.138;5.444;2023-05-07T07:11:31;19.50;67.20
68719;DHT22;55696;52.138;5.444;2023-05-07T07:13:58;19.40;66.90
68719;DHT22;55696;52.138;5.444;2023-05-07T07:16:25;19.50;66.70
68719;DHT22;55696;52.138;5.444;2023-05-07T07:18:52;19.80;66.70
68719;DHT22;55696;52.138;5.444;2023-05-07T07:21:19;19.70;66.40
68719;DHT22;55696;52.138;5.444;2023-05-07T07:23:46;19.90;66.50
68719;DHT22;55696;52.138;5.444;2023-05-07T07:26:13;20.00;66.30
68719;DHT22;55696;52.138;5.444;2023-05-07T07:28:47;20.20;65.80
68719;DHT22;55696;52.138;5.444;2023-05-07T07:31:17;20.20;65.70
68719;DHT22;55696;52.138;5.444;2023-05-07T07:33:44;20.30;65.30
68719;DHT22;55696;52.138;5.444;2023-05-07T07:36:11;20.30;65.20
68719;DHT22;55696;52.138;5.444;2023-05-07T07:38:38;20.20;64.90
68719;DHT22;55696;52.138;5.444;2023-05-07T07:41:07;20.40;65.20
68719;DHT22;55696;52.138;5.444;2023-05-07T07:43:34;20.20;65.00
68719;DHT22;55696;52.138;5.444;2023-05-07T07:46:03;20.20;65.20
68719;DHT22;55696;52.138;5.444;2023-05-07T07:48:30;20.40;65.20
68719;DHT22;55696;52.138;5.444;2023-05-07T07:50:58;20.90;65.40
68719;DHT22;55696;52.138;5.444;2023-05-07T07:53:25;20.20;64.90
68719;DHT22;55696;52.138;5.444;2023-05-07T07:55:51;20.30;65.00
68719;DHT22;55696;52.138;5.444;2023-05-07T07:58:26;20.50;65.00
68719;DHT22;55696;52.138;5.444;2023-05-07T08:00:53;20.70;64.60
68719;DHT22;55696;52.138;5.444;2023-05-07T08:03:23;20.70;64.30
68719;DHT22;55696;52.138;5.444;2023-05-07T08:05:53;21.00;64.00
68719;DHT22;55696;52.138;5.444;2023-05-07T08:08:20;21.80;64.00
68719;DHT22;55696;52.138;5.444;2023-05-07T08:10:48;21.20;63.60
68719;DHT22;55696;52.138;5.444;2023-05-07T08:13:24;21.30;63.40
68719;DHT22;55696;52.138;5.444;2023-05-07T08:15:51;21.30;63.10
68719;DHT22;55696;52.138;5.444;2023-05-07T08:18:18;21.30;63.10
68719;DHT22;55696;52.138;5.444;2023-05-07T08:20:46;21.30;63.10
68719;DHT22;55696;52.138;5.444;2023-05-07T08:23:17;21.20;63.10
68719;DHT22;55696;52.138;5.444;2023-05-07T08:25:45;21.10;63.00
68719;DHT22;55696;52.138;5.444;2023-05-07T08:28:12;20.90;63.00
68719;DHT22;55696;52.138;5.444;2023-05-07T08:30:39;20.80;63.30
68719;DHT22;55696;52.138;5.444;2023-05-07T08:33:08;20.80;63.50
68719;DHT22;55696;52.138;5.444;2023-05-07T08:35:35;20.80;63.70
68719;DHT22;55696;52.138;5.444;2023-05-07T08:38:04;20.70;63.60
68719;DHT22;55696;52.138;5.444;2023-05-07T08:40:36;20.80;63.70
68719;DHT22;55696;52.138;5.444;2023-05-07T08:43:08;20.70;64.10
68719;DHT22;55696;52.138;5.444;2023-05-07T08:45:39;20.70;64.20
68719;DHT22;55696;52.138;5.444;2023-05-07T08:48:14;20.90;64.50
68719;DHT22;55696;52.138;5.444;2023-05-07T08:50:43;20.90;64.50
68719;DHT22;55696;52.138;5.444;2023-05-07T08:53:10;20.90;64.40
68719;DHT22;55696;52.138;5.444;2023-05-07T08:55:38;21.10;64.30
68719;DHT22;55696;52.138;5.444;2023-05-07T08:58:06;22.10;64.60
68719;DHT22;55696;52.138;5.444;2023-05-07T09:00:39;21.30;64.20
68719;DHT22;55696;52.138;5.444;2023-05-07T09:03:07;21.10;64.10
68719;DHT22;55696;52.138;5.444;2023-05-07T09:05:35;21.00;64.00
68719;DHT22;55696;52.138;5.444;2023-05-07T09:08:06;21.10;64.10
68719;DHT22;55696;52.138;5.444;2023-05-07T09:10:34;21.10;64.10
68719;DHT22;55696;52.138;5.444;2023-05-07T09:13:03;21.30;64.20
68719;DHT22;55696;52.138;5.444;2023-05-07T09:15:30;21.10;64.30
68719;DHT22;55696;52.138;5.444;2023-05-07T09:18:01;21.20;64.20
68719;DHT22;55696;52.138;5.444;2023-05-07T09:20:32;21.30;64.40
68719;DHT22;55696;52.138;5.444;2023-05-07T09:23:00;21.20;64.20
68719;DHT22;55696;52.138;5.444;2023-05-07T09:25:30;21.10;64.00
68719;DHT22;55696;52.138;5.444;2023-05-07T09:27:59;21.20;64.10
68719;DHT22;55696;52.138;5.444;2023-05-07T09:30:30;21.30;64.30
68719;DHT22;55696;52.138;5.444;2023-05-07T09:33:00;21.20;64.40
68719;DHT22;55696;52.138;5.444;2023-05-07T09:35:28;21.30;64.10
68719;DHT22;55696;52.138;5.444;2023-05-07T09:38:00;21.40;64.10
68719;DHT22;55696;52.138;5.444;2023-05-07T09:40:31;21.80;64.40
68719;DHT22;55696;52.138;5.444;2023-05-07T09:43:13;21.30;63.90
68719;DHT22;55696;52.138;5.444;2023-05-07T09:45:53;21.10;64.00
68719;DHT22;55696;52.138;5.444;2023-05-07T09:48:25;21.60;64.00
68719;DHT22;55696;52.138;5.444;2023-05-07T09:50:56;21.10;63.80
68719;DHT22;55696;52.138;5.444;2023-05-07T09:53:29;21.00;63.90
68719;DHT22;55696;52.138;5.444;2023-05-07T09:55:58;21.10;63.80
68719;DHT22;55696;52.138;5.444;2023-05-07T09:58:26;21.40;63.90
68719;DHT22;55696;52.138;5.444;2023-05-07T10:00:54;21.20;63.60
68719;DHT22;55696;52.138;5.444;2023-05-07T10:03:24;21.20;63.50
68719;DHT22;55696;52.138;5.444;2023-05-07T10:05:59;21.30;63.50
68719;DHT22;55696;52.138;5.444;2023-05-07T10:08:28;21.50;63.40
68719;DHT22;55696;52.138;5.444;2023-05-07T10:10:57;21.60;63.20
68719;DHT22;55696;52.138;5.444;2023-05-07T10:13:26;21.80;62.90
68719;DHT22;55696;52.138;5.444;2023-05-07T10:15:57;21.70;62.90
68719;DHT22;55696;52.138;5.444;2023-05-07T10:18:28;21.90;62.60
68719;DHT22;55696;52.138;5.444;2023-05-07T10:21:11;22.00;62.30
68719;DHT22;55696;52.138;5.444;2023-05-07T10:23:38;22.40;62.50
68719;DHT22;55696;52.138;5.444;2023-05-07T10:26:07;22.00;62.10
68719;DHT22;55696;52.138;5.444;2023-05-07T10:28:41;22.40;62.60
68719;DHT22;55696;52.138;5.444;2023-05-07T10:33:58;22.40;61.80
68719;DHT22;55696;52.138;5.444;2023-05-07T10:36:26;22.50;61.10
68719;DHT22;55696;52.138;5.444;2023-05-07T10:38:55;22.70;61.10
68719;DHT22;55696;52.138;5.444;2023-05-07T10:41:21;22.70;60.90
68719;DHT22;55696;52.138;5.444;2023-05-07T10:43:50;23.00;60.60
68719;DHT22;55696;52.138;5.444;2023-05-07T10:46:29;23.00;60.00
68719;DHT22;55696;52.138;5.444;2023-05-07T10:51:38;23.50;59.50
68719;DHT22;55696;52.138;5.444;2023-05-07T10:56:51;24.40;58.40
68719;DHT22;55696;52.138;5.444;2023-05-07T10:59:29;23.70;57.70
68719;DHT22;55696;52.138;5.444;2023-05-07T11:02:05;23.80;57.50
68719;DHT22;55696;52.138;5.444;2023-05-07T11:04:41;24.00;57.80
68719;DHT22;55696;52.138;5.444;2023-05-07T11:15:13;23.80;57.90
68719;DHT22;55696;52.138;5.444;2023-05-07T11:17:54;23.80;57.80
68719;DHT22;55696;52.138;5.444;2023-05-07T11:20:46;24.10;57.90
68719;DHT22;55696;52.138;5.444;2023-05-07T11:26:40;24.10;57.40
68719;DHT22;55696;52.138;5.444;2023-05-07T11:29:12;24.00;57.60
68719;DHT22;55696;52.138;5.444;2023-05-07T11:31:41;24.00;57.60
68719;DHT22;55696;52.138;5.444;2023-05-07T11:34:09;24.90;57.70
68719;DHT22;55696;52.138;5.444;2023-05-07T11:36:41;24.00;57.20
68719;DHT22;55696;52.138;5.444;2023-05-07T11:39:26;24.30;57.00
68719;DHT22;55696;52.138;5.444;2023-05-07T11:41:53;24.40;57.00
68719;DHT22;55696;52.138;5.444;2023-05-07T11:44:20;24.70;56.50
68719;DHT22;55696;52.138;5.444;2023-05-07T11:46:47;24.40;56.00
68719;DHT22;55696;52.138;5.444;2023-05-07T11:49:15;25.10;56.00
68719;DHT22;55696;52.138;5.444;2023-05-07T11:51:42;24.70;56.40
68719;DHT22;55696;52.138;5.444;2023-05-07T11:54:09;25.10;56.30
68719;DHT22;55696;52.138;5.444;2023-05-07T11:56:37;25.20;56.60
68719;DHT22;55696;52.138;5.444;2023-05-07T11:59:05;24.90;56.10
68719;DHT22;55696;52.138;5.444;2023-05-07T12:01:35;24.60;56.00
68719;DHT22;55696;52.138;5.444;2023-05-07T12:04:03;24.80;56.20
68719;DHT22;55696;52.138;5.444;2023-05-07T12:06:30;24.80;56.20
68719;DHT22;55696;52.138;5.444;2023-05-07T12:08:57;25.00;56.00
68719;DHT22;55696;52.138;5.444;2023-05-07T12:11:25;25.10;55.40
68719;DHT22;55696;52.138;5.444;2023-05-07T12:13:54;25.40;54.60
68719;DHT22;55696;52.138;5.444;2023-05-07T12:16:25;25.10;54.40
68719;DHT22;55696;52.138;5.444;2023-05-07T12:18:53;25.30;54.40
68719;DHT22;55696;52.138;5.444;2023-05-07T12:21:21;25.10;54.10
68719;DHT22;55696;52.138;5.444;2023-05-07T12:23:49;25.30;54.30
68719;DHT22;55696;52.138;5.444;2023-05-07T12:26:16;25.40;54.00
68719;DHT22;55696;52.138;5.444;2023-05-07T12:28:43;26.00;54.80
68719;DHT22;55696;52.138;5.444;2023-05-07T12:31:10;25.90;54.50
68719;DHT22;55696;52.138;5.444;2023-05-07T12:33:37;26.20;54.00
68719;DHT22;55696;52.138;5.444;2023-05-07T12:36:06;26.20;53.30
68719;DHT22;55696;52.138;5.444;2023-05-07T12:38:38;26.10;53.20
68719;DHT22;55696;52.138;5.444;2023-05-07T12:41:06;26.40;53.50
68719;DHT22;55696;52.138;5.444;2023-05-07T12:43:34;25.80;53.00
68719;DHT22;55696;52.138;5.444;2023-05-07T12:46:03;25.90;53.10
68719;DHT22;55696;52.138;5.444;2023-05-07T12:48:31;26.10;52.90
68719;DHT22;55696;52.138;5.444;2023-05-07T12:51:00;26.20;52.70
68719;DHT22;55696;52.138;5.444;2023-05-07T12:53:28;26.40;52.00
68719;DHT22;55696;52.138;5.444;2023-05-07T12:55:56;26.60;51.50
68719;DHT22;55696;52.138;5.444;2023-05-07T12:58:31;26.90;51.10
68719;DHT22;55696;52.138;5.444;2023-05-07T13:01:01;27.00;50.20
68719;DHT22;55696;52.138;5.444;2023-05-07T13:03:32;27.00;50.30
68719;DHT22;55696;52.138;5.444;2023-05-07T13:06:03;26.90;49.40
68719;DHT22;55696;52.138;5.444;2023-05-07T13:08:38;27.10;50.00
68719;DHT22;55696;52.138;5.444;2023-05-07T13:11:08;27.10;49.30
68719;DHT22;55696;52.138;5.444;2023-05-07T13:13:36;27.00;48.60
68719;DHT22;55696;52.138;5.444;2023-05-07T13:16:04;26.80;49.00
68719;DHT22;55696;52.138;5.444;2023-05-07T13:18:32;26.80;49.70
68719;DHT22;55696;52.138;5.444;2023-05-07T13:21:00;26.90;49.60
68719;DHT22;55696;52.138;5.444;2023-05-07T13:23:28;26.80;49.70
68719;DHT22;55696;52.138;5.444;2023-05-07T13:25:55;27.00;50.00
68719;DHT22;55696;52.138;5.444;2023-05-07T13:28:25;27.10;50.70
68719;DHT22;55696;52.138;5.444;2023-05-07T13:30:52;27.10;49.40
68719;DHT22;55696;52.138;5.444;2023-05-07T13:33:20;27.10;49.50
68719;DHT22;55696;52.138;5.444;2023-05-07T13:35:47;27.00;48.50
68719;DHT22;55696;52.138;5.444;2023-05-07T13:38:14;27.00;49.20
68719;DHT22;55696;52.138;5.444;2023-05-07T13:40:42;26.70;49.00
68719;DHT22;55696;52.138;5.444;2023-05-07T13:43:09;26.80;49.20
68719;DHT22;55696;52.138;5.444;2023-05-07T13:45:37;26.60;49.50
68719;DHT22;55696;52.138;5.444;2023-05-07T13:48:04;26.90;49.50
68719;DHT22;55696;52.138;5.444;2023-05-07T13:50:31;26.40;49.10
68719;DHT22;55696;52.138;5.444;2023-05-07T13:52:58;26.30;49.50
68719;DHT22;55696;52.138;5.444;2023-05-07T13:55:25;26.20;50.00
68719;DHT22;55696;52.138;5.444;2023-05-07T13:57:56;26.10;50.30
68719;DHT22;55696;52.138;5.444;2023-05-07T14:00:24;25.90;50.50
68719;DHT22;55696;52.138;5.444;2023-05-07T14:02:51;26.10;50.70
68719;DHT22;55696;52.138;5.444;2023-05-07T14:05:19;25.70;50.50
68719;DHT22;55696;52.138;5.444;2023-05-07T14:07:46;25.60;50.70
68719;DHT22;55696;52.138;5.444;2023-05-07T14:10:15;25.40;51.00
68719;DHT22;55696;52.138;5.444;2023-05-07T14:12:41;25.20;51.30
68719;DHT22;55696;52.138;5.444;2023-05-07T14:15:11;25.30;51.60
68719;DHT22;55696;52.138;5.444;2023-05-07T14:17:37;25.30;51.70
68719;DHT22;55696;52.138;5.444;2023-05-07T14:20:05;25.20;52.10
68719;DHT22;55696;52.138;5.444;2023-05-07T14:22:35;25.30;52.00
68719;DHT22;55696;52.138;5.444;2023-05-07T14:25:02;25.30;52.30
68719;DHT22;55696;52.138;5.444;2023-05-07T14:27:32;25.20;52.60
68719;DHT22;55696;52.138;5.444;2023-05-07T14:29:59;25.20;52.70
68719;DHT22;55696;52.138;5.444;2023-05-07T14:32:26;25.10;52.70
68719;DHT22;55696;52.138;5.444;2023-05-07T14:34:53;25.10;52.80
68719;DHT22;55696;52.138;5.444;2023-05-07T14:37:19;25.00;52.50
68719;DHT22;55696;52.138;5.444;2023-05-07T14:39:46;25.50;52.90
68719;DHT22;55696;52.138;5.444;2023-05-07T14:42:16;25.30;52.90
68719;DHT22;55696;52.138;5.444;2023-05-07T14:44:44;25.20;53.20
68719;DHT22;55696;52.138;5.444;2023-05-07T14:47:12;24.80;53.10
68719;DHT22;55696;52.138;5.444;2023-05-07T14:49:39;24.70;53.00
68719;DHT22;55696;52.138;5.444;2023-05-07T14:52:07;24.70;53.00
68719;DHT22;55696;52.138;5.444;2023-05-07T14:54:37;24.40;53.10
68719;DHT22;55696;52.138;5.444;2023-05-07T14:57:06;24.50;53.40
68719;DHT22;55696;52.138;5.444;2023-05-07T14:59:33;24.50;53.60
68719;DHT22;55696;52.138;5.444;2023-05-07T15:01:59;24.40;53.80
68719;DHT22;55696;52.138;5.444;2023-05-07T15:04:30;24.30;54.10
68719;DHT22;55696;52.138;5.444;2023-05-07T15:06:57;24.20;54.30
68719;DHT22;55696;52.138;5.444;2023-05-07T15:09:23;24.20;54.40
68719;DHT22;55696;52.138;5.444;2023-05-07T15:11:50;24.10;54.40
68719;DHT22;55696;52.138;5.444;2023-05-07T15:14:17;24.00;54.60
68719;DHT22;55696;52.138;5.444;2023-05-07T15:16:44;23.90;54.90
68719;DHT22;55696;52.138;5.444;2023-05-07T15:19:12;23.80;55.10
68719;DHT22;55696;52.138;5.444;2023-05-07T15:21:41;23.80;55.40
68719;DHT22;55696;52.138;5.444;2023-05-07T15:24:08;23.70;55.60
68719;DHT22;55696;52.138;5.444;2023-05-07T15:26:36;23.40;55.60
68719;DHT22;55696;52.138;5.444;2023-05-07T15:29:02;23.30;56.10
68719;DHT22;55696;52.138;5.444;2023-05-07T15:31:34;23.30;56.50
68719;DHT22;55696;52.138;5.444;2023-05-07T15:34:01;23.10;57.00
68719;DHT22;55696;52.138;5.444;2023-05-07T15:36:28;23.00;57.20
68719;DHT22;55696;52.138;5.444;2023-05-07T15:38:55;23.70;57.80
68719;DHT22;55696;52.138;5.444;2023-05-07T15:41:21;22.80;57.40
68719;DHT22;55696;52.138;5.444;2023-05-07T15:43:50;22.70;57.50
68719;DHT22;55696;52.138;5.444;2023-05-07T15:46:20;22.60;57.30
68719;DHT22;55696;52.138;5.444;2023-05-07T15:48:47;22.10;57.50
68719;DHT22;55696;52.138;5.444;2023-05-07T15:51:14;22.00;58.00
68719;DHT22;55696;52.138;5.444;2023-05-07T15:53:41;21.80;58.50
68719;DHT22;55696;52.138;5.444;2023-05-07T15:56:08;21.40;59.10
68719;DHT22;55696;52.138;5.444;2023-05-07T15:58:35;21.30;60.10